Terminal Aerodrome Forecast
Issued by NWS

Home | Current Version | Previous Version | Text Only | Print | Product List | Glossary On
Versions: 1 2 3 4 5 6 7 8 9 10 11 12 13
000
FTUS42 KTAE 292320
TAFECP
TAF
KECP 292320Z 3000/3024 VRB10KT P6SM VCTS BKN050CB
      TEMPO 3000/3001 VRB15G25KT 3SM TSRA BKN040CB
     FM300200 29003KT P6SM SCT120 BKN250
     FM301400 29006KT P6SM SCT030
     FM301800 22010KT P6SM VCTS BKN040CB
      TEMPO 3020/3024 VRB15G30KT 2SM TSRA BKN040CB=

USA.gov is the U.S. government's official web portal to all federal, state and local government web resources and services.